createdAt,value
2023-05-12T00:00:51.892Z,2.37
2023-05-12T00:03:19.859Z,2.33
2023-05-12T00:05:47.721Z,2.30
2023-05-12T00:08:15.571Z,2.63
2023-05-12T00:10:43.397Z,2.60
2023-05-12T00:13:13.077Z,2.93
2023-05-12T00:15:40.944Z,2.83
2023-05-12T00:18:08.884Z,2.57
2023-05-12T00:20:37.044Z,3.27
2023-05-12T00:23:04.987Z,2.73
2023-05-12T00:25:32.866Z,2.20
2023-05-12T00:28:00.811Z,2.80
2023-05-12T00:30:30.120Z,2.83
2023-05-12T00:32:58.768Z,2.70
2023-05-12T00:35:26.774Z,2.57
2023-05-12T00:37:55.104Z,2.80
2023-05-12T00:40:23.037Z,2.80
2023-05-12T00:42:51.021Z,3.43
2023-05-12T00:45:19.054Z,2.53
2023-05-12T00:47:48.485Z,2.67
2023-05-12T00:50:16.945Z,3.20
2023-05-12T00:52:45.667Z,2.47
2023-05-12T00:55:13.583Z,2.90
2023-05-12T00:57:42.241Z,2.27
2023-05-12T01:00:11.888Z,2.67
2023-05-12T01:02:40.158Z,2.77
2023-05-12T01:05:10.608Z,3.10
2023-05-12T01:07:40.687Z,2.47
2023-05-12T01:10:19.146Z,2.80
2023-05-12T01:12:47.472Z,2.57
2023-05-12T01:15:15.483Z,2.63
2023-05-12T01:17:48.211Z,2.60
2023-05-12T01:20:19.872Z,3.07
2023-05-12T01:22:49.190Z,3.10
2023-05-12T01:25:18.005Z,2.97
2023-05-12T01:27:47.802Z,2.70
2023-05-12T01:30:18.792Z,2.77
2023-05-12T01:32:46.875Z,2.80
2023-05-12T01:35:14.789Z,2.90
2023-05-12T01:37:42.662Z,2.40
2023-05-12T01:40:11.401Z,2.23
2023-05-12T01:42:40.716Z,2.80
2023-05-12T01:45:11.375Z,3.03
2023-05-12T01:47:39.367Z,2.53
2023-05-12T01:50:07.966Z,2.70
2023-05-12T01:52:35.843Z,2.97
2023-05-12T01:55:04.119Z,2.87
2023-05-12T01:57:32.790Z,2.33
2023-05-12T02:00:01.229Z,2.87
2023-05-12T02:02:31.645Z,2.70
2023-05-12T02:04:59.657Z,2.70
2023-05-12T02:07:27.546Z,2.63
2023-05-12T02:09:55.471Z,2.60
2023-05-12T02:12:23.579Z,2.67
2023-05-12T02:14:51.504Z,2.70
2023-05-12T02:17:19.344Z,2.67
2023-05-12T02:19:48.651Z,2.80
2023-05-12T02:22:16.489Z,2.77
2023-05-12T02:24:44.384Z,2.87
2023-05-12T02:27:12.424Z,3.03
2023-05-12T02:29:40.314Z,2.50
2023-05-12T02:32:08.792Z,2.93
2023-05-12T02:34:36.832Z,3.03
2023-05-12T02:37:06.223Z,2.90
2023-05-12T02:39:34.233Z,2.53
2023-05-12T02:42:02.090Z,3.37
2023-05-12T02:44:29.945Z,2.57
2023-05-12T02:46:58.079Z,2.70
2023-05-12T02:49:25.945Z,2.83
2023-05-12T02:51:55.180Z,3.00
2023-05-12T02:54:24.536Z,2.97
2023-05-12T02:56:53.280Z,2.60
2023-05-12T02:59:21.511Z,2.70
2023-05-12T03:01:49.513Z,2.67
2023-05-12T03:04:17.643Z,3.20
2023-05-12T03:06:45.558Z,2.77
2023-05-12T03:09:13.461Z,2.57
2023-05-12T03:11:42.782Z,2.53
2023-05-12T03:14:10.560Z,2.50
2023-05-12T03:16:38.613Z,2.83
2023-05-12T03:19:06.564Z,3.03
2023-05-12T03:21:34.579Z,2.77
2023-05-12T03:24:02.512Z,2.90
2023-05-12T03:26:30.617Z,3.23
2023-05-12T03:28:59.959Z,2.70
2023-05-12T03:31:27.964Z,3.07
2023-05-12T03:33:56.016Z,3.00
2023-05-12T03:36:24.253Z,2.87
2023-05-12T03:38:52.183Z,2.67
2023-05-12T03:41:20.429Z,3.03
2023-05-12T03:43:48.319Z,3.20
2023-05-12T03:46:17.667Z,2.70
2023-05-12T03:48:45.695Z,2.13
2023-05-12T03:51:14.003Z,2.93
2023-05-12T03:53:45.370Z,3.13
2023-05-12T03:56:13.316Z,2.27
2023-05-12T03:58:43.995Z,2.77
2023-05-12T04:01:11.924Z,2.50
2023-05-12T04:03:42.019Z,2.93
2023-05-12T04:06:10.561Z,2.67
2023-05-12T04:08:41.072Z,2.83
2023-05-12T04:11:10.700Z,3.07
2023-05-12T04:13:38.703Z,3.00
2023-05-12T04:16:06.997Z,2.57
2023-05-12T04:18:35.785Z,2.40
2023-05-12T04:21:05.424Z,3.13
2023-05-12T04:23:33.307Z,2.77
2023-05-12T04:26:03.940Z,2.73
2023-05-12T04:28:32.006Z,2.90
2023-05-12T04:31:04.735Z,2.77
2023-05-12T04:33:32.811Z,2.80
2023-05-12T04:36:00.955Z,2.80
2023-05-12T04:38:30.239Z,2.80
2023-05-12T04:41:01.301Z,2.90
2023-05-12T04:46:00.604Z,3.50
2023-05-12T04:48:28.961Z,2.53
2023-05-12T04:50:56.905Z,3.33
2023-05-12T04:53:24.833Z,3.03
2023-05-12T04:55:54.117Z,3.10
2023-05-12T04:58:22.167Z,3.03
2023-05-12T05:00:50.216Z,2.53
2023-05-12T05:03:18.239Z,3.17
2023-05-12T05:05:46.113Z,3.17
2023-05-12T05:08:13.989Z,2.97
2023-05-12T05:10:41.849Z,2.80
2023-05-12T05:13:11.146Z,3.13
2023-05-12T05:15:39.102Z,3.17
2023-05-12T05:18:07.173Z,3.20
2023-05-12T05:20:35.396Z,2.97
2023-05-12T05:23:03.458Z,3.10
2023-05-12T05:25:31.365Z,3.05
2023-05-12T05:27:59.284Z,2.92
2023-05-12T05:30:28.752Z,2.92
2023-05-12T05:32:56.670Z,2.42
2023-05-12T05:35:24.623Z,2.50
2023-05-12T05:37:53.816Z,2.92
2023-05-12T05:40:21.955Z,2.55
2023-05-12T05:42:49.866Z,2.47
2023-05-12T05:45:18.127Z,2.70
2023-05-12T05:47:49.873Z,3.30
2023-05-12T05:50:17.902Z,3.30
2023-05-12T05:52:45.740Z,2.90
2023-05-12T05:55:13.610Z,2.95
2023-05-12T05:57:41.636Z,2.47
2023-05-12T06:00:11.067Z,2.97
2023-05-12T06:02:39.136Z,2.92
2023-05-12T06:05:09.774Z,2.75
2023-05-12T06:07:37.736Z,3.50
2023-05-12T06:10:06.559Z,2.63
2023-05-12T06:12:34.458Z,3.13
2023-05-12T06:15:02.423Z,3.40
2023-05-12T06:17:32.015Z,2.80
2023-05-12T06:20:00.614Z,2.60
2023-05-12T06:22:29.862Z,3.50
2023-05-12T06:24:57.790Z,3.17
2023-05-12T06:27:25.701Z,3.30
2023-05-12T06:29:54.083Z,3.53
2023-05-12T06:32:21.968Z,3.30
2023-05-12T06:34:50.015Z,2.75
2023-05-12T06:37:17.893Z,2.63
2023-05-12T06:39:47.199Z,2.60
2023-05-12T06:42:15.611Z,2.55
2023-05-12T06:44:43.584Z,2.72
2023-05-12T06:47:11.533Z,2.78
2023-05-12T06:49:39.455Z,3.10
2023-05-12T06:52:08.277Z,2.53
2023-05-12T06:54:36.192Z,2.33
2023-05-12T06:57:06.204Z,3.17
2023-05-12T06:59:34.502Z,2.75
2023-05-12T07:02:02.583Z,2.80
2023-05-12T07:04:30.413Z,3.05
2023-05-12T07:06:58.296Z,2.67
2023-05-12T07:09:26.337Z,2.78
2023-05-12T07:11:54.432Z,2.92
2023-05-12T07:14:23.594Z,2.47
2023-05-12T07:16:51.660Z,2.72
2023-05-12T07:19:21.448Z,2.25
2023-05-12T07:21:49.442Z,2.17
2023-05-12T07:24:17.600Z,2.58
2023-05-12T07:26:45.694Z,2.83
2023-05-12T07:29:14.116Z,2.60
2023-05-12T07:31:43.654Z,3.03
2023-05-12T07:34:11.833Z,2.20
2023-05-12T07:36:40.374Z,2.10
2023-05-12T07:39:08.326Z,2.53
2023-05-12T07:41:36.373Z,2.28
2023-05-12T07:44:04.315Z,2.17
2023-05-12T07:46:32.272Z,2.05
2023-05-12T07:49:01.628Z,2.10
2023-05-12T07:51:29.791Z,2.60
2023-05-12T07:53:58.192Z,2.08
2023-05-12T07:56:26.165Z,2.35
2023-05-12T07:58:54.059Z,2.53
2023-05-12T08:01:21.981Z,2.50
2023-05-12T08:03:51.306Z,1.95
2023-05-12T08:06:21.077Z,1.83
2023-05-12T08:08:48.992Z,1.80
2023-05-12T08:11:16.970Z,2.25
2023-05-12T08:13:44.938Z,2.28
2023-05-12T08:16:12.869Z,2.10
2023-05-12T08:18:40.834Z,1.80
2023-05-12T08:21:09.041Z,1.90
2023-05-12T08:23:38.447Z,2.03
2023-05-12T08:26:06.506Z,2.13
2023-05-12T08:28:34.553Z,2.30
2023-05-12T08:31:04.970Z,1.77
2023-05-12T08:33:34.857Z,1.85
2023-05-12T08:36:02.944Z,2.10
2023-05-12T08:38:31.151Z,2.08
2023-05-12T08:41:14.000Z,1.90
2023-05-12T08:43:45.374Z,2.42
2023-05-12T08:46:14.108Z,2.03
2023-05-12T08:48:42.819Z,1.52
2023-05-12T08:51:13.062Z,1.85
2023-05-12T08:53:43.587Z,2.03
2023-05-12T08:58:48.389Z,1.60
2023-05-12T09:01:18.119Z,1.60
2023-05-12T09:03:48.964Z,1.80
2023-05-12T09:06:17.855Z,2.30
2023-05-12T09:08:46.741Z,1.90
2023-05-12T09:11:17.395Z,1.80
2023-05-12T09:13:53.628Z,1.98
2023-05-12T09:16:28.523Z,2.03
2023-05-12T09:18:57.778Z,2.10
2023-05-12T09:21:26.609Z,1.95
2023-05-12T09:23:56.154Z,2.20
2023-05-12T09:26:26.795Z,1.83
2023-05-12T09:28:55.997Z,1.90
2023-05-12T09:31:25.184Z,1.58
2023-05-12T09:33:53.725Z,2.00
2023-05-12T09:36:22.437Z,1.52
2023-05-12T09:39:00.504Z,1.52
2023-05-12T09:41:29.808Z,1.92
2023-05-12T09:43:58.116Z,2.08
2023-05-12T09:46:26.362Z,1.88
2023-05-12T09:48:57.272Z,1.48
2023-05-12T09:51:25.920Z,1.70
2023-05-12T09:53:54.318Z,1.58
2023-05-12T09:56:22.889Z,1.65
2023-05-12T09:58:52.522Z,1.80
2023-05-12T10:01:23.870Z,1.63
2023-05-12T10:03:54.758Z,2.05
2023-05-12T10:06:28.218Z,2.00
2023-05-12T10:09:05.403Z,1.88
2023-05-12T10:11:34.072Z,1.95
2023-05-12T10:14:03.756Z,1.85
2023-05-12T10:16:32.946Z,1.98
2023-05-12T10:19:01.699Z,1.80
2023-05-12T10:21:29.773Z,1.65
2023-05-12T10:23:58.549Z,2.15
2023-05-12T10:26:27.396Z,1.90
2023-05-12T10:28:55.369Z,1.92
2023-05-12T10:31:25.754Z,1.73
2023-05-12T10:34:00.538Z,1.85
2023-05-12T10:36:29.139Z,2.10
2023-05-12T10:38:57.642Z,1.73
2023-05-12T10:41:32.815Z,1.42
2023-05-12T10:44:01.104Z,1.27
2023-05-12T10:46:30.929Z,1.67
2023-05-12T10:49:03.383Z,1.85
2023-05-12T10:51:33.198Z,2.30
2023-05-12T10:54:03.839Z,1.73
2023-05-12T10:56:44.399Z,1.45
2023-05-12T10:59:17.236Z,1.85
2023-05-12T11:01:59.023Z,1.90
2023-05-12T11:04:45.130Z,1.45
2023-05-12T11:07:14.954Z,1.80
2023-05-12T11:12:18.028Z,1.83
2023-05-12T11:14:47.649Z,1.90
2023-05-12T11:17:17.368Z,1.80
2023-05-12T11:19:48.209Z,1.90
2023-05-12T11:22:18.667Z,2.13
2023-05-12T11:24:47.199Z,2.13
2023-05-12T11:27:16.452Z,1.88
2023-05-12T11:29:47.084Z,1.73
2023-05-12T11:32:17.147Z,1.83
2023-05-12T11:34:47.378Z,2.30
2023-05-12T11:37:15.445Z,2.00
2023-05-12T11:39:43.360Z,2.03
2023-05-12T11:42:13.619Z,1.77
2023-05-12T11:44:47.961Z,2.00
2023-05-12T11:47:18.506Z,1.88
2023-05-12T11:49:48.697Z,2.13
2023-05-12T11:52:17.141Z,1.85
2023-05-12T11:54:50.768Z,2.00
2023-05-12T11:57:27.523Z,1.70
2023-05-12T12:00:00.255Z,1.63
2023-05-12T12:02:30.321Z,1.90
2023-05-12T12:04:58.615Z,1.50
2023-05-12T12:07:33.723Z,1.77
2023-05-12T12:10:13.044Z,1.98
2023-05-12T12:12:41.321Z,1.85
2023-05-12T12:15:10.345Z,2.17
2023-05-12T12:17:40.500Z,1.83
2023-05-12T12:20:09.977Z,1.90
2023-05-12T12:22:37.837Z,1.48
2023-05-12T12:25:06.538Z,1.50
2023-05-12T12:27:34.393Z,1.90
2023-05-12T12:30:02.553Z,1.83
2023-05-12T12:32:30.413Z,1.50
2023-05-12T12:35:04.064Z,2.00
2023-05-12T12:37:32.165Z,1.95
2023-05-12T12:40:00.185Z,1.63
2023-05-12T12:42:28.168Z,1.35
2023-05-12T12:44:56.041Z,1.58
2023-05-12T12:47:24.392Z,1.60
2023-05-12T12:49:52.436Z,1.45
2023-05-12T12:52:21.808Z,1.58
2023-05-12T12:54:49.843Z,1.70
2023-05-12T12:57:18.582Z,1.65
2023-05-12T12:59:46.500Z,1.70
2023-05-12T13:02:14.562Z,1.92
2023-05-12T13:04:42.481Z,1.40
2023-05-12T13:07:10.324Z,1.58
2023-05-12T13:09:39.649Z,1.45
2023-05-12T13:12:08.510Z,1.73
2023-05-12T13:14:36.334Z,1.33
2023-05-12T13:17:05.132Z,2.00
2023-05-12T13:19:33.676Z,2.25
2023-05-12T13:22:02.876Z,1.70
2023-05-12T13:24:30.870Z,1.50
2023-05-12T13:27:00.105Z,1.65
2023-05-12T13:29:28.027Z,1.50
2023-05-12T13:31:56.139Z,1.45
2023-05-12T13:34:24.021Z,1.60
2023-05-12T13:36:52.219Z,1.67
2023-05-12T13:39:20.623Z,1.58
2023-05-12T13:41:48.484Z,1.63
2023-05-12T13:44:17.676Z,1.67
2023-05-12T13:46:45.569Z,1.52
2023-05-12T13:49:13.670Z,1.48
2023-05-12T13:51:41.570Z,1.58
2023-05-12T13:54:09.616Z,1.95
2023-05-12T13:56:38.039Z,1.33
2023-05-12T13:59:05.950Z,2.10
2023-05-12T14:01:35.882Z,1.63
2023-05-12T14:04:03.924Z,2.05
2023-05-12T14:06:32.257Z,1.30
2023-05-12T14:09:00.253Z,1.63
2023-05-12T14:11:28.439Z,1.42
2023-05-12T14:13:56.597Z,1.90
2023-05-12T14:16:24.678Z,1.65
2023-05-12T14:18:54.294Z,1.55
2023-05-12T14:21:22.207Z,1.90
2023-05-12T14:23:51.334Z,1.30
2023-05-12T14:26:19.813Z,1.40
2023-05-12T14:28:47.838Z,1.88
2023-05-12T14:31:16.161Z,1.83
2023-05-12T14:33:44.075Z,1.33
2023-05-12T14:36:13.333Z,1.45
2023-05-12T14:38:41.430Z,1.80
2023-05-12T14:41:09.639Z,2.00
2023-05-12T14:43:38.305Z,1.58
2023-05-12T14:46:07.277Z,2.13
2023-05-12T14:48:35.336Z,1.58
2023-05-12T14:51:03.532Z,2.00
2023-05-12T14:53:32.872Z,1.70
2023-05-12T14:56:00.884Z,1.77
2023-05-12T14:58:28.959Z,2.22
2023-05-12T15:00:56.996Z,1.70
2023-05-12T15:03:25.169Z,1.65
2023-05-12T15:06:05.732Z,1.77
2023-05-12T15:08:36.455Z,1.80
2023-05-12T15:11:04.468Z,1.75
2023-05-12T15:13:32.521Z,1.55
2023-05-12T15:16:01.334Z,1.92
2023-05-12T15:18:29.472Z,1.90
2023-05-12T15:20:57.520Z,1.27
2023-05-12T15:23:25.439Z,1.40
2023-05-12T15:25:54.709Z,1.50
2023-05-12T15:28:22.576Z,1.63
2023-05-12T15:30:56.321Z,1.77
2023-05-12T15:33:24.671Z,1.85
2023-05-12T15:35:52.647Z,1.52
2023-05-12T15:38:20.628Z,1.92
2023-05-12T15:40:48.492Z,1.60
2023-05-12T15:43:18.115Z,1.95
2023-05-12T15:45:46.099Z,1.55
2023-05-12T15:48:14.298Z,2.20
2023-05-12T15:50:42.213Z,1.98
2023-05-12T15:53:10.340Z,1.50
2023-05-12T15:55:38.335Z,1.77
2023-05-12T15:58:08.199Z,1.85
2023-05-12T16:00:37.543Z,1.52
2023-05-12T16:03:05.761Z,1.90
2023-05-12T16:05:37.720Z,1.40
2023-05-12T16:08:05.691Z,1.58
2023-05-12T16:10:34.125Z,1.80
2023-05-12T16:13:01.999Z,1.67
2023-05-12T16:15:29.932Z,1.98
2023-05-12T16:17:59.919Z,2.00
2023-05-12T16:20:29.010Z,1.60
2023-05-12T16:22:56.940Z,2.33
2023-05-12T16:25:24.960Z,1.38
2023-05-12T16:27:53.024Z,1.55
2023-05-12T16:30:20.954Z,1.83
2023-05-12T16:32:48.897Z,2.03
2023-05-12T16:35:18.623Z,1.67
2023-05-12T16:37:47.252Z,1.70
2023-05-12T16:40:15.849Z,1.58
2023-05-12T16:42:43.779Z,1.90
2023-05-12T16:45:12.466Z,1.60
2023-05-12T16:47:40.484Z,1.70
2023-05-12T16:50:09.800Z,1.83
2023-05-12T16:52:39.099Z,1.48
2023-05-12T16:55:08.055Z,1.45
2023-05-12T16:57:36.025Z,1.98
2023-05-12T17:00:05.497Z,1.77
2023-05-12T17:02:33.879Z,1.65
2023-05-12T17:05:01.997Z,1.67
2023-05-12T17:07:31.056Z,1.33
2023-05-12T17:10:00.930Z,1.65
2023-05-12T17:12:29.159Z,1.38
2023-05-12T17:15:07.029Z,1.80
2023-05-12T17:17:36.505Z,1.30
2023-05-12T17:20:06.048Z,1.48
2023-05-12T17:22:37.143Z,1.90
2023-05-12T17:25:08.594Z,1.20
2023-05-12T17:27:36.542Z,1.83
2023-05-12T17:30:05.146Z,1.27
2023-05-12T17:32:33.289Z,1.63
2023-05-12T17:35:01.451Z,1.63
2023-05-12T17:37:30.276Z,1.92
2023-05-12T17:39:58.373Z,1.40
2023-05-12T17:42:30.993Z,1.60
2023-05-12T17:44:59.110Z,1.85
2023-05-12T17:47:27.616Z,1.50
2023-05-12T17:49:56.556Z,1.98
2023-05-12T17:52:24.609Z,1.30
2023-05-12T17:54:55.867Z,1.60
2023-05-12T17:57:23.922Z,1.23
2023-05-12T17:59:54.595Z,1.52
2023-05-12T18:02:22.645Z,1.60
2023-05-12T18:04:50.672Z,1.70
2023-05-12T18:07:18.550Z,1.63
2023-05-12T18:09:46.625Z,1.75
2023-05-12T18:12:14.561Z,1.60
2023-05-12T18:14:42.670Z,1.70
2023-05-12T18:17:12.260Z,1.80
2023-05-12T18:19:40.234Z,1.70
2023-05-12T18:22:08.613Z,1.88
2023-05-12T18:24:36.904Z,1.63
2023-05-12T18:27:06.505Z,1.70
2023-05-12T18:29:34.630Z,1.52
2023-05-12T18:32:02.503Z,1.90
2023-05-12T18:34:32.037Z,1.55
2023-05-12T18:36:59.952Z,1.52
2023-05-12T18:39:27.873Z,1.80
2023-05-12T18:41:56.063Z,1.60
2023-05-12T18:44:24.148Z,1.88
2023-05-12T18:46:52.158Z,1.67
2023-05-12T18:49:20.164Z,1.55
2023-05-12T18:51:49.451Z,1.88
2023-05-12T18:54:17.398Z,1.55
2023-05-12T18:56:47.291Z,1.83
2023-05-12T18:59:15.372Z,1.85
2023-05-12T19:01:43.666Z,1.85
2023-05-12T19:04:11.662Z,1.98
2023-05-12T19:06:39.694Z,1.65
2023-05-12T19:09:08.995Z,1.63
2023-05-12T19:11:37.193Z,1.45
2023-05-12T19:14:05.080Z,1.52
2023-05-12T19:16:34.832Z,2.03
2023-05-12T19:19:03.211Z,2.10
2023-05-12T19:21:32.374Z,2.03
2023-05-12T19:24:01.121Z,1.55
2023-05-12T19:26:30.821Z,1.30
2023-05-12T19:29:00.450Z,1.80
2023-05-12T19:31:28.524Z,1.88
2023-05-12T19:33:56.545Z,2.00
2023-05-12T19:36:24.545Z,1.48
2023-05-12T19:38:52.570Z,1.30
2023-05-12T19:41:20.684Z,1.58
2023-05-12T19:43:50.108Z,1.83
2023-05-12T19:46:18.237Z,1.63
2023-05-12T19:48:46.221Z,2.20
2023-05-12T19:51:14.229Z,1.75
2023-05-12T19:53:43.139Z,1.92
2023-05-12T19:56:11.342Z,1.58
2023-05-12T19:58:39.325Z,1.60
2023-05-12T20:01:08.899Z,1.83
2023-05-12T20:03:36.916Z,2.00
2023-05-12T20:06:06.137Z,1.50
2023-05-12T20:08:34.057Z,2.08
2023-05-12T20:11:01.939Z,1.90
2023-05-12T20:13:29.819Z,1.88
2023-05-12T20:15:57.868Z,2.00
2023-05-12T20:18:28.688Z,1.75
2023-05-12T20:20:57.168Z,1.80
2023-05-12T20:23:25.077Z,1.52
2023-05-12T20:25:53.849Z,1.70
2023-05-12T20:28:24.172Z,2.10
2023-05-12T20:30:52.254Z,1.98
2023-05-12T20:33:20.292Z,1.90
2023-05-12T20:35:49.588Z,1.90
2023-05-12T20:38:17.627Z,2.28
2023-05-12T20:40:45.465Z,1.95
2023-05-12T20:43:14.482Z,2.00
2023-05-12T20:45:42.625Z,2.00
2023-05-12T20:48:10.665Z,1.95
2023-05-12T20:50:38.624Z,1.67
2023-05-12T20:53:07.926Z,2.13
2023-05-12T20:55:35.895Z,2.28
2023-05-12T20:58:03.846Z,2.38
2023-05-12T21:00:31.748Z,1.80
2023-05-12T21:03:00.195Z,2.25
2023-05-12T21:05:28.141Z,2.23
2023-05-12T21:07:56.098Z,2.40
2023-05-12T21:10:25.596Z,1.90
2023-05-12T21:12:53.500Z,1.73
2023-05-12T21:15:21.408Z,1.87
2023-05-12T21:17:49.725Z,2.07
2023-05-12T21:20:17.726Z,1.97
2023-05-12T21:22:45.699Z,2.07
2023-05-12T21:25:13.539Z,2.23
2023-05-12T21:27:42.857Z,2.53
2023-05-12T21:30:11.824Z,2.10
2023-05-12T21:32:40.358Z,2.27
2023-05-12T21:35:08.817Z,2.03
2023-05-12T21:37:36.862Z,2.10
2023-05-12T21:40:05.603Z,2.33
2023-05-12T21:42:33.570Z,2.60
2023-05-12T21:45:02.854Z,1.90
2023-05-12T21:47:30.795Z,1.60
2023-05-12T21:49:58.739Z,2.30
2023-05-12T21:52:26.659Z,2.03
2023-05-12T21:54:54.534Z,2.40
2023-05-12T21:57:22.412Z,2.03
2023-05-12T21:59:50.607Z,2.03
2023-05-12T22:02:19.883Z,2.10
2023-05-12T22:04:48.238Z,1.97
2023-05-12T22:07:16.140Z,2.20
2023-05-12T22:09:44.666Z,2.30
2023-05-12T22:12:15.469Z,2.30
2023-05-12T22:14:43.703Z,2.40
2023-05-12T22:17:11.658Z,2.10
2023-05-12T22:19:41.217Z,1.97
2023-05-12T22:22:09.205Z,1.97
2023-05-12T22:24:37.171Z,2.00
2023-05-12T22:27:05.216Z,2.17
2023-05-12T22:29:33.169Z,2.37
2023-05-12T22:32:01.034Z,2.20
2023-05-12T22:34:29.030Z,2.30
2023-05-12T22:36:58.390Z,2.13
2023-05-12T22:39:26.307Z,2.07
2023-05-12T22:41:54.649Z,2.70
2023-05-12T22:44:22.559Z,2.47
2023-05-12T22:46:50.482Z,2.10
2023-05-12T22:49:18.362Z,2.40
2023-05-12T22:51:46.247Z,2.33
2023-05-12T22:54:15.751Z,2.47
2023-05-12T22:56:44.713Z,2.43
2023-05-12T22:59:12.664Z,2.57
2023-05-12T23:01:40.580Z,2.10
2023-05-12T23:04:08.494Z,2.27
2023-05-12T23:06:36.393Z,2.27
2023-05-12T23:09:04.356Z,1.80
2023-05-12T23:11:33.587Z,2.00
2023-05-12T23:14:01.517Z,2.40
2023-05-12T23:16:29.497Z,2.10
2023-05-12T23:18:57.425Z,2.53
2023-05-12T23:21:25.405Z,2.10
2023-05-12T23:23:53.281Z,2.40
2023-05-12T23:26:22.276Z,1.90
2023-05-12T23:28:51.571Z,2.77
2023-05-12T23:31:19.855Z,2.30
2023-05-12T23:33:47.897Z,2.40
2023-05-12T23:36:15.888Z,2.60
2023-05-12T23:38:43.808Z,2.23
2023-05-12T23:41:11.960Z,2.30
2023-05-12T23:43:40.411Z,2.43
2023-05-12T23:46:09.997Z,2.10
2023-05-12T23:48:38.283Z,2.60
2023-05-12T23:51:06.414Z,2.53
2023-05-12T23:53:34.439Z,2.97
2023-05-12T23:56:03.077Z,2.23
2023-05-12T23:58:31.024Z,2.57
